createdAt,value
2019-05-13T00:03:20.654Z,3.5
2019-05-13T00:08:21.800Z,3.4
2019-05-13T00:13:23.672Z,3.3
2019-05-13T00:18:23.501Z,3.3
2019-05-13T00:23:23.343Z,3.2
2019-05-13T00:28:23.447Z,3.1
2019-05-13T00:33:24.476Z,3.1
2019-05-13T00:38:24.515Z,3
2019-05-13T00:43:25.760Z,3
2019-05-13T00:48:25.730Z,2.9
2019-05-13T00:53:25.999Z,2.9
2019-05-13T00:58:25.995Z,2.8
2019-05-13T01:03:28.398Z,2.7
2019-05-13T01:08:26.602Z,2.6
2019-05-13T01:13:27.638Z,2.6
2019-05-13T01:18:27.669Z,2.5
2019-05-13T01:23:28.223Z,2.5
2019-05-13T01:28:28.276Z,2.4
2019-05-13T01:33:30.123Z,2.3
2019-05-13T01:38:34.735Z,2.3
2019-05-13T01:43:35.925Z,2.2
2019-05-13T01:48:35.874Z,2.2
2019-05-13T01:53:38.442Z,2.2
2019-05-13T01:58:39.200Z,2.1
2019-05-13T02:03:40.094Z,2
2019-05-13T02:08:40.090Z,2
2019-05-13T02:13:40.128Z,1.9
2019-05-13T02:18:40.156Z,1.8
2019-05-13T02:23:40.113Z,1.8
2019-05-13T02:28:40.450Z,1.7
2019-05-13T02:33:42.295Z,1.6
2019-05-13T02:38:42.663Z,1.5
2019-05-13T02:43:45.023Z,1.5
2019-05-13T02:48:42.164Z,1.4
2019-05-13T02:53:43.651Z,1.4
2019-05-13T02:58:42.751Z,1.3
2019-05-13T03:03:44.251Z,1.2
2019-05-13T03:08:49.312Z,1.1
2019-05-13T03:13:42.529Z,1
2019-05-13T03:18:43.474Z,1
2019-05-13T03:23:43.932Z,0.9
2019-05-13T03:28:43.763Z,0.8
2019-05-13T03:33:46.043Z,0.8
2019-05-13T03:38:59.252Z,0.7
2019-05-13T03:43:44.752Z,0.7
2019-05-13T03:48:45.117Z,0.6
2019-05-13T03:53:45.699Z,0.6
2019-05-13T03:58:45.099Z,0.5
2019-05-13T04:03:47.735Z,0.5
2019-05-13T04:08:47.930Z,0.4
2019-05-13T04:13:48.543Z,0.4
2019-05-13T04:18:53.196Z,0.4
2019-05-13T04:23:52.995Z,0.3
2019-05-13T04:28:52.556Z,0.3
2019-05-13T04:33:53.226Z,0.4
2019-05-13T04:38:53.332Z,0.4
2019-05-13T04:43:54.206Z,0.4
2019-05-13T04:48:57.925Z,0.5
2019-05-13T04:54:02.932Z,0.5
2019-05-13T04:59:08.320Z,0.6
2019-05-13T05:04:11.250Z,0.6
2019-05-13T05:09:14.071Z,0.7
2019-05-13T05:14:27.942Z,0.8
2019-05-13T05:24:54.861Z,1.2
2019-05-13T05:29:54.891Z,1.3
2019-05-13T05:34:54.909Z,1.5
2019-05-13T05:39:54.965Z,1.9
2019-05-13T05:44:54.897Z,2.2
2019-05-13T05:49:54.912Z,2.5
2019-05-13T05:54:54.896Z,2.8
2019-05-13T05:59:55.017Z,3.1
2019-05-13T06:04:54.899Z,3.4
2019-05-13T06:09:55.523Z,3.6
2019-05-13T06:14:55.136Z,3.7
2019-05-13T06:19:55.170Z,3.9
2019-05-13T06:24:55.231Z,4.1
2019-05-13T06:29:55.260Z,4.3
2019-05-13T06:34:55.363Z,4.5
2019-05-13T06:39:55.516Z,4.5
2019-05-13T06:44:56.424Z,4.7
2019-05-13T06:49:56.926Z,4.9
2019-05-13T06:54:57.700Z,5
2019-05-13T06:59:57.856Z,5.2
2019-05-13T07:04:57.801Z,5.3
2019-05-13T07:09:58.356Z,5.5
2019-05-13T07:14:58.094Z,5.8
2019-05-13T07:19:58.834Z,5.9
2019-05-13T07:24:59.198Z,6
2019-05-13T07:30:01.855Z,6.1
2019-05-13T07:35:03.303Z,6.1
2019-05-13T07:40:03.333Z,6.2
2019-05-13T07:45:01.428Z,6.4
2019-05-13T07:50:02.392Z,6.5
2019-05-13T07:55:01.889Z,6.8
2019-05-13T08:00:03.146Z,7.1
2019-05-13T08:05:02.785Z,7.3
2019-05-13T08:10:04.377Z,7.5
2019-05-13T08:15:03.252Z,7.7
2019-05-13T08:20:03.929Z,7.9
2019-05-13T08:25:03.454Z,8.2
2019-05-13T08:30:02.736Z,8.5
2019-05-13T08:35:08.573Z,9
2019-05-13T08:40:02.722Z,9.3
2019-05-13T08:45:02.755Z,9.8
2019-05-13T08:50:04.301Z,10.5
2019-05-13T08:55:02.838Z,10.4
2019-05-13T09:00:04.609Z,10.2
2019-05-13T09:05:02.775Z,10.3
2019-05-13T09:10:02.747Z,10.6
2019-05-13T09:15:03.405Z,10.9
2019-05-13T09:20:03.043Z,11.1
2019-05-13T09:25:02.758Z,11.4
2019-05-13T09:30:17.128Z,11.6
2019-05-13T09:35:17.472Z,12.1
2019-05-13T09:40:22.318Z,12.4
2019-05-13T09:45:21.681Z,12.4
2019-05-13T09:50:29.159Z,12.4
2019-05-13T09:55:28.918Z,12.9
2019-05-13T10:00:25.504Z,13
2019-05-13T10:05:28.093Z,13.6
2019-05-13T10:10:28.132Z,13.7
2019-05-13T10:15:32.498Z,14.2
2019-05-13T10:20:32.623Z,14.3
2019-05-13T10:25:32.589Z,14.4
2019-05-13T10:30:36.610Z,14.5
2019-05-13T10:35:36.454Z,14.8
2019-05-13T10:40:37.030Z,15.2
2019-05-13T10:45:52.191Z,15.4
2019-05-13T10:50:56.314Z,15.2
2019-05-13T10:55:57.318Z,15.4
2019-05-13T11:00:56.538Z,15.8
2019-05-13T11:05:56.552Z,15.7
2019-05-13T11:10:56.649Z,16.1
2019-05-13T11:15:58.336Z,16.2
2019-05-13T11:20:58.093Z,16.2
2019-05-13T11:25:58.129Z,16.1
2019-05-13T11:30:59.751Z,16.1
2019-05-13T11:35:58.151Z,16.2
2019-05-13T11:41:02.503Z,16.1
2019-05-13T11:46:02.613Z,16.3
2019-05-13T11:51:05.329Z,16.4
2019-05-13T11:56:17.518Z,16.7
2019-05-13T12:01:27.263Z,16.6
2019-05-13T12:07:06.844Z,16.5
2019-05-13T12:11:33.289Z,16.6
2019-05-13T12:16:34.928Z,16.7
2019-05-13T12:21:41.475Z,16.9
2019-05-13T12:26:34.342Z,16.8
2019-05-13T12:31:39.237Z,16.8
2019-05-13T12:36:42.879Z,16.7
2019-05-13T12:41:42.691Z,17
2019-05-13T12:46:48.960Z,17.1
2019-05-13T12:51:43.847Z,16.9
2019-05-13T12:56:42.502Z,17
2019-05-13T13:01:41.221Z,17
2019-05-13T13:06:45.275Z,17.1
2019-05-13T13:11:44.165Z,17.1
2019-05-13T13:16:44.299Z,17
2019-05-13T13:21:44.250Z,16.8
2019-05-13T13:26:45.246Z,16.7
2019-05-13T13:31:45.104Z,16.9
2019-05-13T13:36:46.412Z,16.9
2019-05-13T13:41:53.749Z,17.2
2019-05-13T13:47:14.645Z,17.4
2019-05-13T13:51:58.887Z,17.3
2019-05-13T13:57:01.870Z,17
2019-05-13T14:02:05.105Z,17.1
2019-05-13T14:07:35.680Z,17.2
2019-05-13T14:12:11.314Z,17.3
2019-05-13T14:17:14.634Z,17.5
2019-05-13T14:22:14.619Z,17.8
2019-05-13T14:27:14.856Z,17.9
2019-05-13T14:32:15.953Z,17.8
2019-05-13T14:37:15.979Z,17.4
2019-05-13T14:42:22.700Z,17.2
2019-05-13T14:53:01.530Z,17.7
2019-05-13T14:58:13.054Z,17.7
2019-05-13T15:03:13.235Z,17.7
2019-05-13T15:08:12.938Z,17.6
2019-05-13T15:13:12.964Z,17.8
2019-05-13T15:18:12.960Z,17.5
2019-05-13T15:23:13.887Z,17.3
2019-05-13T15:28:13.891Z,16.9
2019-05-13T15:33:13.912Z,17.4
2019-05-13T15:38:13.961Z,17.5
2019-05-13T15:43:13.897Z,17.1
2019-05-13T15:56:16.654Z,17
2019-05-13T16:01:16.507Z,17
2019-05-13T16:06:17.008Z,16.7
2019-05-13T16:11:16.810Z,16.6
2019-05-13T16:16:16.821Z,16.7
2019-05-13T16:21:17.037Z,16.7
2019-05-13T17:16:51.823Z,15.4
2019-05-13T17:22:18.746Z,15.4
2019-05-13T17:28:12.986Z,15.3
2019-05-13T17:33:17.432Z,15.2
2019-05-13T17:38:24.847Z,15.2
2019-05-13T17:43:25.704Z,15.1
2019-05-13T17:48:29.455Z,15
2019-05-13T17:53:26.955Z,14.8
2019-05-13T17:58:26.850Z,14.8
2019-05-13T18:09:11.717Z,14.5
2019-05-13T18:14:16.400Z,14.5
2019-05-13T18:26:57.218Z,14.2
2019-05-13T18:32:04.450Z,14
2019-05-13T18:37:14.894Z,13.9
2019-05-13T18:42:25.304Z,13.8
2019-05-13T18:47:26.973Z,13.7
2019-05-13T18:52:26.373Z,13.6
2019-05-13T18:57:31.842Z,13.5
2019-05-13T19:02:34.924Z,13.3
2019-05-13T19:07:51.238Z,13.1
2019-05-13T19:12:52.321Z,12.9
2019-05-13T19:22:21.393Z,12.4
2019-05-13T19:28:05.579Z,12
2019-05-13T19:33:36.006Z,11.7
2019-05-13T19:38:39.591Z,11.5
2019-05-13T19:43:41.980Z,11.2
2019-05-13T19:48:44.151Z,10.9
2019-05-13T19:53:45.448Z,10.7
2019-05-13T19:58:45.564Z,10.5
2019-05-13T20:03:45.483Z,10.2
2019-05-13T20:08:45.492Z,10
2019-05-13T20:13:45.725Z,9.8
2019-05-13T20:18:45.790Z,9.5
2019-05-13T20:23:46.047Z,9.3
2019-05-13T20:28:46.568Z,9.1
2019-05-13T20:33:51.530Z,8.9
2019-05-13T20:38:57.128Z,8.7
2019-05-13T20:43:56.689Z,8.5
2019-05-13T20:49:58.973Z,8.4
2019-05-13T20:55:03.566Z,8.2
2019-05-13T21:00:17.416Z,7.9
2019-05-13T21:05:27.211Z,7.8
2019-05-13T21:10:27.960Z,7.6
2019-05-13T21:15:27.921Z,7.5
2019-05-13T21:20:28.459Z,7.4
2019-05-13T21:25:28.211Z,7.2
2019-05-13T21:30:28.184Z,7
2019-05-13T21:35:28.221Z,6.9
2019-05-13T21:40:28.188Z,6.7
2019-05-13T21:45:28.495Z,6.6
2019-05-13T21:50:34.076Z,6.4
2019-05-13T21:55:28.520Z,6.3
2019-05-13T22:00:31.709Z,6.2
2019-05-13T22:05:32.359Z,6.1
2019-05-13T22:10:32.285Z,5.9
2019-05-13T22:15:32.424Z,5.8
2019-05-13T22:20:45.737Z,5.7
2019-05-13T22:25:32.303Z,5.7
2019-05-13T22:30:33.523Z,5.5
2019-05-13T22:35:32.440Z,5.4
2019-05-13T22:40:32.411Z,5.3
2019-05-13T22:45:42.000Z,5.2
2019-05-13T22:50:41.542Z,5.1
2019-05-13T22:55:41.966Z,5
2019-05-13T23:00:42.303Z,4.9
2019-05-13T23:05:41.657Z,4.8
2019-05-13T23:10:42.043Z,4.7
2019-05-13T23:15:41.442Z,4.7
2019-05-13T23:20:41.453Z,4.6
2019-05-13T23:25:43.145Z,4.5
2019-05-13T23:30:46.870Z,4.4
2019-05-13T23:35:49.414Z,4.3
2019-05-13T23:40:51.374Z,4.2
2019-05-13T23:45:51.096Z,4.1
2019-05-13T23:50:49.371Z,4
2019-05-13T23:55:51.806Z,3.9
